sensor_id;sensor_type;location;lat;lon;timestamp;P1;durP1;ratioP1;P2;durP2;ratioP2
13568;SDS011;6856;51.460;7.158;2023-04-01T00:01:02;3.03;;;0.97;;
13568;SDS011;6856;51.460;7.158;2023-04-01T00:03:40;2.30;;;1.10;;
13568;SDS011;6856;51.460;7.158;2023-04-01T00:06:16;1.07;;;0.70;;
13568;SDS011;6856;51.460;7.158;2023-04-01T00:08:51;2.30;;;1.03;;
13568;SDS011;6856;51.460;7.158;2023-04-01T00:11:25;1.67;;;0.90;;
13568;SDS011;6856;51.460;7.158;2023-04-01T00:14:00;2.13;;;1.03;;
13568;SDS011;6856;51.460;7.158;2023-04-01T00:16:34;2.10;;;0.90;;
13568;SDS011;6856;51.460;7.158;2023-04-01T00:19:10;3.20;;;1.10;;
13568;SDS011;6856;51.460;7.158;2023-04-01T00:21:44;2.07;;;0.90;;
13568;SDS011;6856;51.460;7.158;2023-04-01T00:24:19;1.40;;;0.70;;
13568;SDS011;6856;51.460;7.158;2023-04-01T00:26:53;2.27;;;0.73;;
13568;SDS011;6856;51.460;7.158;2023-04-01T00:29:27;2.03;;;0.67;;
13568;SDS011;6856;51.460;7.158;2023-04-01T00:32:02;2.57;;;1.10;;
13568;SDS011;6856;51.460;7.158;2023-04-01T00:34:39;0.87;;;0.60;;
13568;SDS011;6856;51.460;7.158;2023-04-01T00:37:13;2.00;;;0.90;;
13568;SDS011;6856;51.460;7.158;2023-04-01T00:39:49;2.50;;;0.70;;
13568;SDS011;6856;51.460;7.158;2023-04-01T00:42:23;2.80;;;0.70;;
13568;SDS011;6856;51.460;7.158;2023-04-01T00:44:57;0.83;;;0.60;;
13568;SDS011;6856;51.460;7.158;2023-04-01T00:47:52;0.90;;;0.70;;
13568;SDS011;6856;51.460;7.158;2023-04-01T00:50:28;2.40;;;0.83;;
13568;SDS011;6856;51.460;7.158;2023-04-01T00:53:05;1.00;;;0.60;;
13568;SDS011;6856;51.460;7.158;2023-04-01T00:55:42;0.70;;;0.70;;
13568;SDS011;6856;51.460;7.158;2023-04-01T00:58:24;1.10;;;0.60;;
13568;SDS011;6856;51.460;7.158;2023-04-01T01:01:05;3.23;;;1.03;;
13568;SDS011;6856;51.460;7.158;2023-04-01T01:03:42;2.37;;;0.70;;
13568;SDS011;6856;51.460;7.158;2023-04-01T01:06:26;1.40;;;0.53;;
13568;SDS011;6856;51.460;7.158;2023-04-01T01:09:20;0.80;;;0.57;;
13568;SDS011;6856;51.460;7.158;2023-04-01T01:12:05;0.60;;;0.60;;
13568;SDS011;6856;51.460;7.158;2023-04-01T01:14:52;1.30;;;0.60;;
13568;SDS011;6856;51.460;7.158;2023-04-01T01:17:37;0.57;;;0.53;;
13568;SDS011;6856;51.460;7.158;2023-04-01T01:27:11;1.00;;;0.60;;
13568;SDS011;6856;51.460;7.158;2023-04-01T01:30:11;1.00;;;0.57;;
13568;SDS011;6856;51.460;7.158;2023-04-01T01:33:05;0.53;;;0.53;;
13568;SDS011;6856;51.460;7.158;2023-04-01T01:36:11;1.60;;;0.80;;
13568;SDS011;6856;51.460;7.158;2023-04-01T01:38:47;1.20;;;0.67;;
13568;SDS011;6856;51.460;7.158;2023-04-01T01:41:24;0.90;;;0.60;;
13568;SDS011;6856;51.460;7.158;2023-04-01T01:44:01;1.47;;;0.60;;
13568;SDS011;6856;51.460;7.158;2023-04-01T01:46:41;1.83;;;0.70;;
13568;SDS011;6856;51.460;7.158;2023-04-01T01:49:17;0.80;;;0.67;;
13568;SDS011;6856;51.460;7.158;2023-04-01T01:51:54;1.13;;;0.70;;
13568;SDS011;6856;51.460;7.158;2023-04-01T01:54:28;0.87;;;0.60;;
13568;SDS011;6856;51.460;7.158;2023-04-01T01:57:03;1.23;;;0.80;;
13568;SDS011;6856;51.460;7.158;2023-04-01T01:59:42;1.60;;;0.60;;
13568;SDS011;6856;51.460;7.158;2023-04-01T02:02:21;1.20;;;0.70;;
13568;SDS011;6856;51.460;7.158;2023-04-01T02:04:56;0.70;;;0.60;;
13568;SDS011;6856;51.460;7.158;2023-04-01T02:07:33;1.90;;;0.80;;
13568;SDS011;6856;51.460;7.158;2023-04-01T02:10:12;1.63;;;0.60;;
13568;SDS011;6856;51.460;7.158;2023-04-01T02:12:47;0.90;;;0.73;;
13568;SDS011;6856;51.460;7.158;2023-04-01T02:15:23;0.87;;;0.67;;
13568;SDS011;6856;51.460;7.158;2023-04-01T02:18:03;1.97;;;0.80;;
13568;SDS011;6856;51.460;7.158;2023-04-01T02:20:38;1.23;;;0.60;;
13568;SDS011;6856;51.460;7.158;2023-04-01T02:23:16;1.23;;;0.60;;
13568;SDS011;6856;51.460;7.158;2023-04-01T02:25:50;0.47;;;0.47;;
13568;SDS011;6856;51.460;7.158;2023-04-01T02:28:24;0.83;;;0.50;;
13568;SDS011;6856;51.460;7.158;2023-04-01T02:31:01;1.23;;;0.63;;
13568;SDS011;6856;51.460;7.158;2023-04-01T02:33:38;1.13;;;0.50;;
13568;SDS011;6856;51.460;7.158;2023-04-01T02:36:13;1.30;;;0.53;;
13568;SDS011;6856;51.460;7.158;2023-04-01T02:38:52;1.53;;;0.70;;
13568;SDS011;6856;51.460;7.158;2023-04-01T02:41:30;0.70;;;0.43;;
13568;SDS011;6856;51.460;7.158;2023-04-01T02:44:11;1.10;;;0.70;;
13568;SDS011;6856;51.460;7.158;2023-04-01T02:46:47;1.67;;;0.70;;
13568;SDS011;6856;51.460;7.158;2023-04-01T02:49:22;1.57;;;0.57;;
13568;SDS011;6856;51.460;7.158;2023-04-01T02:51:55;0.60;;;0.50;;
13568;SDS011;6856;51.460;7.158;2023-04-01T02:54:31;1.43;;;0.57;;
13568;SDS011;6856;51.460;7.158;2023-04-01T02:57:05;0.47;;;0.47;;
13568;SDS011;6856;51.460;7.158;2023-04-01T02:59:39;0.77;;;0.50;;
13568;SDS011;6856;51.460;7.158;2023-04-01T03:02:14;0.80;;;0.40;;
13568;SDS011;6856;51.460;7.158;2023-04-01T03:04:49;0.40;;;0.40;;
13568;SDS011;6856;51.460;7.158;2023-04-01T03:07:23;0.47;;;0.47;;
13568;SDS011;6856;51.460;7.158;2023-04-01T03:09:58;0.43;;;0.43;;
13568;SDS011;6856;51.460;7.158;2023-04-01T03:12:32;1.27;;;0.40;;
13568;SDS011;6856;51.460;7.158;2023-04-01T03:15:08;1.00;;;0.40;;
13568;SDS011;6856;51.460;7.158;2023-04-01T03:17:44;1.33;;;0.50;;
13568;SDS011;6856;51.460;7.158;2023-04-01T03:20:19;0.77;;;0.47;;
13568;SDS011;6856;51.460;7.158;2023-04-01T03:22:53;1.67;;;0.60;;
13568;SDS011;6856;51.460;7.158;2023-04-01T03:25:28;0.50;;;0.40;;
13568;SDS011;6856;51.460;7.158;2023-04-01T03:28:02;0.50;;;0.50;;
13568;SDS011;6856;51.460;7.158;2023-04-01T03:30:36;0.50;;;0.47;;
13568;SDS011;6856;51.460;7.158;2023-04-01T03:33:10;1.10;;;0.47;;
13568;SDS011;6856;51.460;7.158;2023-04-01T03:35:44;1.23;;;0.50;;
13568;SDS011;6856;51.460;7.158;2023-04-01T03:38:18;1.30;;;0.50;;
13568;SDS011;6856;51.460;7.158;2023-04-01T03:40:54;1.20;;;0.60;;
13568;SDS011;6856;51.460;7.158;2023-04-01T03:43:28;0.50;;;0.40;;
13568;SDS011;6856;51.460;7.158;2023-04-01T03:46:02;0.40;;;0.40;;
13568;SDS011;6856;51.460;7.158;2023-04-01T03:48:36;0.87;;;0.50;;
13568;SDS011;6856;51.460;7.158;2023-04-01T03:51:10;0.77;;;0.53;;
13568;SDS011;6856;51.460;7.158;2023-04-01T03:53:44;0.40;;;0.40;;
13568;SDS011;6856;51.460;7.158;2023-04-01T03:56:19;0.83;;;0.50;;
13568;SDS011;6856;51.460;7.158;2023-04-01T03:58:53;2.00;;;0.70;;
13568;SDS011;6856;51.460;7.158;2023-04-01T04:01:27;0.43;;;0.40;;
13568;SDS011;6856;51.460;7.158;2023-04-01T04:04:01;0.83;;;0.40;;
13568;SDS011;6856;51.460;7.158;2023-04-01T04:06:36;0.40;;;0.40;;
13568;SDS011;6856;51.460;7.158;2023-04-01T04:09:10;1.13;;;0.47;;
13568;SDS011;6856;51.460;7.158;2023-04-01T04:11:45;0.50;;;0.40;;
13568;SDS011;6856;51.460;7.158;2023-04-01T04:14:19;1.00;;;0.40;;
13568;SDS011;6856;51.460;7.158;2023-04-01T04:16:53;0.60;;;0.60;;
13568;SDS011;6856;51.460;7.158;2023-04-01T04:19:31;0.40;;;0.40;;
13568;SDS011;6856;51.460;7.158;2023-04-01T04:22:06;0.30;;;0.30;;
13568;SDS011;6856;51.460;7.158;2023-04-01T04:24:40;1.57;;;0.50;;
13568;SDS011;6856;51.460;7.158;2023-04-01T04:27:15;0.87;;;0.40;;
13568;SDS011;6856;51.460;7.158;2023-04-01T04:29:50;0.50;;;0.50;;
13568;SDS011;6856;51.460;7.158;2023-04-01T04:32:23;0.40;;;0.40;;
13568;SDS011;6856;51.460;7.158;2023-04-01T04:35:00;0.40;;;0.40;;
13568;SDS011;6856;51.460;7.158;2023-04-01T04:37:34;0.57;;;0.50;;
13568;SDS011;6856;51.460;7.158;2023-04-01T04:40:09;0.30;;;0.30;;
13568;SDS011;6856;51.460;7.158;2023-04-01T04:42:46;0.47;;;0.43;;
13568;SDS011;6856;51.460;7.158;2023-04-01T04:45:20;0.50;;;0.50;;
13568;SDS011;6856;51.460;7.158;2023-04-01T04:47:54;0.40;;;0.40;;
13568;SDS011;6856;51.460;7.158;2023-04-01T04:50:29;1.00;;;0.47;;
13568;SDS011;6856;51.460;7.158;2023-04-01T04:53:04;0.40;;;0.40;;
13568;SDS011;6856;51.460;7.158;2023-04-01T04:55:42;0.30;;;0.30;;
13568;SDS011;6856;51.460;7.158;2023-04-01T04:58:18;0.87;;;0.43;;
13568;SDS011;6856;51.460;7.158;2023-04-01T05:00:53;0.60;;;0.40;;
13568;SDS011;6856;51.460;7.158;2023-04-01T05:03:27;0.40;;;0.40;;
13568;SDS011;6856;51.460;7.158;2023-04-01T05:06:03;0.40;;;0.40;;
13568;SDS011;6856;51.460;7.158;2023-04-01T05:08:38;0.67;;;0.40;;
13568;SDS011;6856;51.460;7.158;2023-04-01T05:11:15;0.40;;;0.40;;
13568;SDS011;6856;51.460;7.158;2023-04-01T05:13:52;0.40;;;0.40;;
13568;SDS011;6856;51.460;7.158;2023-04-01T05:16:26;1.17;;;0.50;;
13568;SDS011;6856;51.460;7.158;2023-04-01T05:19:01;0.60;;;0.60;;
13568;SDS011;6856;51.460;7.158;2023-04-01T05:21:35;0.70;;;0.40;;
13568;SDS011;6856;51.460;7.158;2023-04-01T05:24:09;0.57;;;0.50;;
13568;SDS011;6856;51.460;7.158;2023-04-01T05:26:42;0.43;;;0.43;;
13568;SDS011;6856;51.460;7.158;2023-04-01T05:29:18;0.63;;;0.50;;
13568;SDS011;6856;51.460;7.158;2023-04-01T05:31:52;0.40;;;0.40;;
13568;SDS011;6856;51.460;7.158;2023-04-01T05:34:26;0.60;;;0.50;;
13568;SDS011;6856;51.460;7.158;2023-04-01T05:37:00;0.40;;;0.40;;
13568;SDS011;6856;51.460;7.158;2023-04-01T05:39:35;0.50;;;0.50;;
13568;SDS011;6856;51.460;7.158;2023-04-01T05:42:10;0.53;;;0.53;;
13568;SDS011;6856;51.460;7.158;2023-04-01T05:44:46;0.60;;;0.60;;
13568;SDS011;6856;51.460;7.158;2023-04-01T05:47:20;0.40;;;0.40;;
13568;SDS011;6856;51.460;7.158;2023-04-01T05:49:54;0.60;;;0.60;;
13568;SDS011;6856;51.460;7.158;2023-04-01T05:52:28;0.50;;;0.50;;
13568;SDS011;6856;51.460;7.158;2023-04-01T05:55:02;1.53;;;0.80;;
13568;SDS011;6856;51.460;7.158;2023-04-01T05:57:37;1.13;;;0.70;;
13568;SDS011;6856;51.460;7.158;2023-04-01T06:00:14;0.60;;;0.60;;
13568;SDS011;6856;51.460;7.158;2023-04-01T06:02:51;2.70;;;0.70;;
13568;SDS011;6856;51.460;7.158;2023-04-01T06:05:27;0.53;;;0.53;;
13568;SDS011;6856;51.460;7.158;2023-04-01T06:08:05;0.60;;;0.60;;
13568;SDS011;6856;51.460;7.158;2023-04-01T06:10:57;0.83;;;0.70;;
13568;SDS011;6856;51.460;7.158;2023-04-01T06:13:50;0.60;;;0.60;;
13568;SDS011;6856;51.460;7.158;2023-04-01T06:16:58;0.60;;;0.60;;
13568;SDS011;6856;51.460;7.158;2023-04-01T06:19:53;0.70;;;0.70;;
13568;SDS011;6856;51.460;7.158;2023-04-01T06:22:44;0.60;;;0.60;;
13568;SDS011;6856;51.460;7.158;2023-04-01T06:25:51;0.70;;;0.70;;
13568;SDS011;6856;51.460;7.158;2023-04-01T06:28:41;0.60;;;0.60;;
13568;SDS011;6856;51.460;7.158;2023-04-01T06:35:27;1.33;;;0.70;;
13568;SDS011;6856;51.460;7.158;2023-04-01T06:38:30;0.67;;;0.67;;
13568;SDS011;6856;51.460;7.158;2023-04-01T06:41:33;0.77;;;0.73;;
13568;SDS011;6856;51.460;7.158;2023-04-01T06:44:32;0.70;;;0.70;;
13568;SDS011;6856;51.460;7.158;2023-04-01T06:47:25;0.67;;;0.67;;
13568;SDS011;6856;51.460;7.158;2023-04-01T06:50:19;0.93;;;0.70;;
13568;SDS011;6856;51.460;7.158;2023-04-01T06:53:03;0.70;;;0.70;;
13568;SDS011;6856;51.460;7.158;2023-04-01T06:55:51;0.70;;;0.70;;
13568;SDS011;6856;51.460;7.158;2023-04-01T06:58:34;0.77;;;0.63;;
13568;SDS011;6856;51.460;7.158;2023-04-01T07:01:16;0.70;;;0.70;;
13568;SDS011;6856;51.460;7.158;2023-04-01T07:04:00;0.93;;;0.90;;
13568;SDS011;6856;51.460;7.158;2023-04-01T07:06:43;0.70;;;0.60;;
13568;SDS011;6856;51.460;7.158;2023-04-01T07:09:25;1.00;;;0.80;;
13568;SDS011;6856;51.460;7.158;2023-04-01T07:12:06;1.53;;;0.90;;
13568;SDS011;6856;51.460;7.158;2023-04-01T07:14:51;1.00;;;0.90;;
13568;SDS011;6856;51.460;7.158;2023-04-01T07:17:30;0.70;;;0.70;;
13568;SDS011;6856;51.460;7.158;2023-04-01T07:20:13;1.13;;;0.77;;
13568;SDS011;6856;51.460;7.158;2023-04-01T07:22:58;0.73;;;0.73;;
13568;SDS011;6856;51.460;7.158;2023-04-01T07:25:35;0.50;;;0.50;;
13568;SDS011;6856;51.460;7.158;2023-04-01T07:28:15;1.27;;;0.80;;
13568;SDS011;6856;51.460;7.158;2023-04-01T07:30:52;0.90;;;0.83;;
13568;SDS011;6856;51.460;7.158;2023-04-01T07:33:41;1.17;;;0.80;;
13568;SDS011;6856;51.460;7.158;2023-04-01T07:36:31;0.80;;;0.80;;
13568;SDS011;6856;51.460;7.158;2023-04-01T07:39:17;0.77;;;0.77;;
13568;SDS011;6856;51.460;7.158;2023-04-01T07:42:07;0.50;;;0.50;;
13568;SDS011;6856;51.460;7.158;2023-04-01T07:44:54;0.60;;;0.60;;
13568;SDS011;6856;51.460;7.158;2023-04-01T07:47:45;0.97;;;0.80;;
13568;SDS011;6856;51.460;7.158;2023-04-01T07:50:37;2.30;;;0.80;;
13568;SDS011;6856;51.460;7.158;2023-04-01T07:53:25;2.53;;;0.90;;
13568;SDS011;6856;51.460;7.158;2023-04-01T07:56:10;0.97;;;0.70;;
13568;SDS011;6856;51.460;7.158;2023-04-01T07:58:52;0.80;;;0.80;;
13568;SDS011;6856;51.460;7.158;2023-04-01T08:01:39;1.10;;;0.80;;
13568;SDS011;6856;51.460;7.158;2023-04-01T08:04:35;0.87;;;0.70;;
13568;SDS011;6856;51.460;7.158;2023-04-01T08:07:23;0.70;;;0.70;;
13568;SDS011;6856;51.460;7.158;2023-04-01T08:10:08;0.50;;;0.50;;
13568;SDS011;6856;51.460;7.158;2023-04-01T08:12:53;0.73;;;0.70;;
13568;SDS011;6856;51.460;7.158;2023-04-01T08:15:41;1.00;;;0.90;;
13568;SDS011;6856;51.460;7.158;2023-04-01T08:18:28;0.60;;;0.60;;
13568;SDS011;6856;51.460;7.158;2023-04-01T08:21:14;0.77;;;0.77;;
13568;SDS011;6856;51.460;7.158;2023-04-01T08:23:55;1.97;;;1.00;;
13568;SDS011;6856;51.460;7.158;2023-04-01T08:26:35;1.73;;;1.00;;
13568;SDS011;6856;51.460;7.158;2023-04-01T08:29:17;1.27;;;1.17;;
13568;SDS011;6856;51.460;7.158;2023-04-01T08:31:55;1.13;;;1.03;;
13568;SDS011;6856;51.460;7.158;2023-04-01T08:34:36;1.33;;;1.23;;
13568;SDS011;6856;51.460;7.158;2023-04-01T08:37:14;1.73;;;1.30;;
13568;SDS011;6856;51.460;7.158;2023-04-01T08:39:54;1.50;;;1.37;;
13568;SDS011;6856;51.460;7.158;2023-04-01T08:42:41;2.10;;;1.30;;
13568;SDS011;6856;51.460;7.158;2023-04-01T08:45:54;1.70;;;1.60;;
13568;SDS011;6856;51.460;7.158;2023-04-01T08:49:01;1.50;;;1.40;;
13568;SDS011;6856;51.460;7.158;2023-04-01T09:01:33;1.70;;;1.60;;
13568;SDS011;6856;51.460;7.158;2023-04-01T09:05:01;2.00;;;1.80;;
13568;SDS011;6856;51.460;7.158;2023-04-01T09:08:11;2.17;;;1.90;;
13568;SDS011;6856;51.460;7.158;2023-04-01T09:11:05;3.30;;;2.00;;
13568;SDS011;6856;51.460;7.158;2023-04-01T09:20:42;3.03;;;2.40;;
13568;SDS011;6856;51.460;7.158;2023-04-01T09:27:09;2.47;;;2.27;;
13568;SDS011;6856;51.460;7.158;2023-04-01T09:33:25;2.70;;;2.27;;
13568;SDS011;6856;51.460;7.158;2023-04-01T09:36:38;3.10;;;2.60;;
13568;SDS011;6856;51.460;7.158;2023-04-01T09:39:24;3.30;;;2.80;;
13568;SDS011;6856;51.460;7.158;2023-04-01T09:42:23;3.47;;;3.10;;
13568;SDS011;6856;51.460;7.158;2023-04-01T09:45:23;3.87;;;3.17;;
13568;SDS011;6856;51.460;7.158;2023-04-01T09:48:19;3.70;;;3.03;;
13568;SDS011;6856;51.460;7.158;2023-04-01T09:51:18;3.40;;;3.00;;
13568;SDS011;6856;51.460;7.158;2023-04-01T09:54:13;3.73;;;3.10;;
13568;SDS011;6856;51.460;7.158;2023-04-01T10:01:06;3.50;;;2.97;;
13568;SDS011;6856;51.460;7.158;2023-04-01T10:04:17;4.40;;;3.40;;
13568;SDS011;6856;51.460;7.158;2023-04-01T10:11:09;4.00;;;3.33;;
13568;SDS011;6856;51.460;7.158;2023-04-01T10:14:31;3.90;;;3.47;;
13568;SDS011;6856;51.460;7.158;2023-04-01T10:17:41;4.47;;;3.83;;
13568;SDS011;6856;51.460;7.158;2023-04-01T10:25:01;3.80;;;3.43;;
13568;SDS011;6856;51.460;7.158;2023-04-01T10:28:14;3.83;;;3.20;;
13568;SDS011;6856;51.460;7.158;2023-04-01T10:41:48;3.13;;;2.60;;
13568;SDS011;6856;51.460;7.158;2023-04-01T10:49:04;3.10;;;2.50;;
13568;SDS011;6856;51.460;7.158;2023-04-01T10:55:53;3.07;;;2.77;;
13568;SDS011;6856;51.460;7.158;2023-04-01T11:03:06;3.03;;;2.67;;
13568;SDS011;6856;51.460;7.158;2023-04-01T11:06:50;3.30;;;2.83;;
13568;SDS011;6856;51.460;7.158;2023-04-01T11:10:19;3.77;;;3.00;;
13568;SDS011;6856;51.460;7.158;2023-04-01T11:13:54;3.97;;;3.30;;
13568;SDS011;6856;51.460;7.158;2023-04-01T11:24:24;3.47;;;3.17;;
13568;SDS011;6856;51.460;7.158;2023-04-01T11:27:50;3.67;;;3.13;;
13568;SDS011;6856;51.460;7.158;2023-04-01T11:31:04;4.23;;;3.27;;
13568;SDS011;6856;51.460;7.158;2023-04-01T11:34:19;4.60;;;3.30;;
13568;SDS011;6856;51.460;7.158;2023-04-01T11:37:18;4.10;;;3.20;;
13568;SDS011;6856;51.460;7.158;2023-04-01T11:40:14;5.00;;;3.83;;
13568;SDS011;6856;51.460;7.158;2023-04-01T11:43:06;4.40;;;3.50;;
13568;SDS011;6856;51.460;7.158;2023-04-01T11:46:05;4.60;;;3.50;;
13568;SDS011;6856;51.460;7.158;2023-04-01T11:48:48;3.90;;;3.30;;
13568;SDS011;6856;51.460;7.158;2023-04-01T11:51:43;5.57;;;3.40;;
13568;SDS011;6856;51.460;7.158;2023-04-01T11:54:45;4.40;;;3.70;;
13568;SDS011;6856;51.460;7.158;2023-04-01T11:58:03;4.30;;;3.37;;
13568;SDS011;6856;51.460;7.158;2023-04-01T12:04:27;4.90;;;3.37;;
13568;SDS011;6856;51.460;7.158;2023-04-01T12:07:49;4.83;;;3.20;;
13568;SDS011;6856;51.460;7.158;2023-04-01T12:10:39;3.60;;;3.00;;
13568;SDS011;6856;51.460;7.158;2023-04-01T12:13:25;2.93;;;2.67;;
13568;SDS011;6856;51.460;7.158;2023-04-01T12:19:26;3.70;;;2.87;;
13568;SDS011;6856;51.460;7.158;2023-04-01T12:22:19;3.60;;;2.93;;
13568;SDS011;6856;51.460;7.158;2023-04-01T12:25:12;3.90;;;3.17;;
13568;SDS011;6856;51.460;7.158;2023-04-01T12:28:05;3.30;;;2.70;;
13568;SDS011;6856;51.460;7.158;2023-04-01T12:31:06;2.77;;;2.43;;
13568;SDS011;6856;51.460;7.158;2023-04-01T12:34:13;2.97;;;2.30;;
13568;SDS011;6856;51.460;7.158;2023-04-01T12:37:39;3.30;;;2.70;;
13568;SDS011;6856;51.460;7.158;2023-04-01T12:40:30;3.17;;;2.77;;
13568;SDS011;6856;51.460;7.158;2023-04-01T12:43:44;3.23;;;2.80;;
13568;SDS011;6856;51.460;7.158;2023-04-01T12:47:02;3.40;;;2.90;;
13568;SDS011;6856;51.460;7.158;2023-04-01T12:53:37;4.73;;;4.00;;
13568;SDS011;6856;51.460;7.158;2023-04-01T12:56:34;4.27;;;3.60;;
13568;SDS011;6856;51.460;7.158;2023-04-01T12:59:25;4.20;;;3.50;;
13568;SDS011;6856;51.460;7.158;2023-04-01T13:02:28;4.13;;;3.40;;
13568;SDS011;6856;51.460;7.158;2023-04-01T13:08:55;4.40;;;3.63;;
13568;SDS011;6856;51.460;7.158;2023-04-01T13:12:02;4.30;;;3.60;;
13568;SDS011;6856;51.460;7.158;2023-04-01T13:18:14;4.53;;;4.13;;
13568;SDS011;6856;51.460;7.158;2023-04-01T13:21:04;4.43;;;4.03;;
13568;SDS011;6856;51.460;7.158;2023-04-01T13:23:54;3.70;;;3.10;;
13568;SDS011;6856;51.460;7.158;2023-04-01T13:26:39;4.60;;;4.07;;
13568;SDS011;6856;51.460;7.158;2023-04-01T13:29:26;3.60;;;3.17;;
13568;SDS011;6856;51.460;7.158;2023-04-01T13:35:23;3.40;;;3.10;;
13568;SDS011;6856;51.460;7.158;2023-04-01T13:38:14;4.47;;;3.30;;
13568;SDS011;6856;51.460;7.158;2023-04-01T13:41:20;3.77;;;3.30;;
13568;SDS011;6856;51.460;7.158;2023-04-01T13:44:09;19.60;;;18.17;;
13568;SDS011;6856;51.460;7.158;2023-04-01T13:47:02;6.83;;;6.13;;
13568;SDS011;6856;51.460;7.158;2023-04-01T13:50:17;5.20;;;4.70;;
13568;SDS011;6856;51.460;7.158;2023-04-01T13:53:09;4.33;;;3.40;;
13568;SDS011;6856;51.460;7.158;2023-04-01T13:56:15;3.97;;;3.03;;
13568;SDS011;6856;51.460;7.158;2023-04-01T13:59:08;3.60;;;3.03;;
13568;SDS011;6856;51.460;7.158;2023-04-01T14:02:19;3.50;;;3.00;;
13568;SDS011;6856;51.460;7.158;2023-04-01T14:08:55;3.80;;;2.50;;
13568;SDS011;6856;51.460;7.158;2023-04-01T14:12:04;3.27;;;2.67;;
13568;SDS011;6856;51.460;7.158;2023-04-01T14:14:49;2.53;;;2.30;;
13568;SDS011;6856;51.460;7.158;2023-04-01T14:17:46;3.03;;;2.73;;
13568;SDS011;6856;51.460;7.158;2023-04-01T14:20:38;3.33;;;2.30;;
13568;SDS011;6856;51.460;7.158;2023-04-01T14:26:29;3.53;;;2.97;;
13568;SDS011;6856;51.460;7.158;2023-04-01T14:29:30;3.70;;;3.20;;
13568;SDS011;6856;51.460;7.158;2023-04-01T14:32:16;4.07;;;3.00;;
13568;SDS011;6856;51.460;7.158;2023-04-01T14:35:18;3.50;;;2.90;;
13568;SDS011;6856;51.460;7.158;2023-04-01T14:38:29;3.37;;;3.07;;
13568;SDS011;6856;51.460;7.158;2023-04-01T14:41:25;2.97;;;2.63;;
13568;SDS011;6856;51.460;7.158;2023-04-01T14:44:18;2.80;;;2.50;;
13568;SDS011;6856;51.460;7.158;2023-04-01T14:47:22;4.37;;;3.47;;
13568;SDS011;6856;51.460;7.158;2023-04-01T14:50:16;4.20;;;2.70;;
13568;SDS011;6856;51.460;7.158;2023-04-01T14:52:57;3.47;;;2.77;;
13568;SDS011;6856;51.460;7.158;2023-04-01T14:55:49;3.27;;;2.87;;
13568;SDS011;6856;51.460;7.158;2023-04-01T14:58:40;3.83;;;3.13;;
13568;SDS011;6856;51.460;7.158;2023-04-01T15:01:20;3.63;;;2.87;;
13568;SDS011;6856;51.460;7.158;2023-04-01T15:04:24;4.30;;;3.20;;
13568;SDS011;6856;51.460;7.158;2023-04-01T15:14:05;3.87;;;3.03;;
13568;SDS011;6856;51.460;7.158;2023-04-01T15:20:20;3.90;;;3.23;;
13568;SDS011;6856;51.460;7.158;2023-04-01T15:23:30;4.17;;;3.33;;
13568;SDS011;6856;51.460;7.158;2023-04-01T15:26:22;3.57;;;3.23;;
13568;SDS011;6856;51.460;7.158;2023-04-01T15:29:16;3.60;;;3.10;;
13568;SDS011;6856;51.460;7.158;2023-04-01T15:32:25;3.37;;;2.97;;
13568;SDS011;6856;51.460;7.158;2023-04-01T15:35:17;3.57;;;3.17;;
13568;SDS011;6856;51.460;7.158;2023-04-01T15:38:05;3.83;;;3.23;;
13568;SDS011;6856;51.460;7.158;2023-04-01T15:40:49;3.90;;;3.27;;
13568;SDS011;6856;51.460;7.158;2023-04-01T15:43:40;4.30;;;3.53;;
13568;SDS011;6856;51.460;7.158;2023-04-01T15:49:20;4.10;;;3.27;;
13568;SDS011;6856;51.460;7.158;2023-04-01T15:52:14;3.40;;;3.10;;
13568;SDS011;6856;51.460;7.158;2023-04-01T15:55:09;3.73;;;3.13;;
13568;SDS011;6856;51.460;7.158;2023-04-01T15:58:06;4.23;;;3.47;;
13568;SDS011;6856;51.460;7.158;2023-04-01T16:01:16;4.30;;;3.63;;
13568;SDS011;6856;51.460;7.158;2023-04-01T16:04:06;3.87;;;3.40;;
13568;SDS011;6856;51.460;7.158;2023-04-01T16:07:09;4.37;;;3.17;;
13568;SDS011;6856;51.460;7.158;2023-04-01T16:09:58;2.40;;;2.10;;
13568;SDS011;6856;51.460;7.158;2023-04-01T16:12:58;5.47;;;2.90;;
13568;SDS011;6856;51.460;7.158;2023-04-01T16:15:56;5.23;;;2.83;;
13568;SDS011;6856;51.460;7.158;2023-04-01T16:18:48;4.43;;;2.47;;
13568;SDS011;6856;51.460;7.158;2023-04-01T16:21:57;3.33;;;2.33;;
13568;SDS011;6856;51.460;7.158;2023-04-01T16:24:38;2.10;;;1.90;;
13568;SDS011;6856;51.460;7.158;2023-04-01T16:27:24;2.90;;;2.50;;
13568;SDS011;6856;51.460;7.158;2023-04-01T16:30:17;4.10;;;2.60;;
13568;SDS011;6856;51.460;7.158;2023-04-01T16:33:10;2.93;;;2.37;;
13568;SDS011;6856;51.460;7.158;2023-04-01T16:35:57;3.03;;;2.43;;
13568;SDS011;6856;51.460;7.158;2023-04-01T16:38:48;4.20;;;3.23;;
13568;SDS011;6856;51.460;7.158;2023-04-01T16:41:29;3.33;;;2.20;;
13568;SDS011;6856;51.460;7.158;2023-04-01T16:44:10;4.07;;;3.00;;
13568;SDS011;6856;51.460;7.158;2023-04-01T16:46:53;3.87;;;3.10;;
13568;SDS011;6856;51.460;7.158;2023-04-01T16:49:30;3.20;;;2.53;;
13568;SDS011;6856;51.460;7.158;2023-04-01T16:52:16;4.17;;;2.73;;
13568;SDS011;6856;51.460;7.158;2023-04-01T16:55:08;3.47;;;3.10;;
13568;SDS011;6856;51.460;7.158;2023-04-01T16:57:51;4.60;;;3.17;;
13568;SDS011;6856;51.460;7.158;2023-04-01T17:00:36;4.47;;;3.20;;
13568;SDS011;6856;51.460;7.158;2023-04-01T17:03:15;3.57;;;2.70;;
13568;SDS011;6856;51.460;7.158;2023-04-01T17:09:22;3.40;;;2.60;;
13568;SDS011;6856;51.460;7.158;2023-04-01T17:12:16;5.00;;;3.77;;
13568;SDS011;6856;51.460;7.158;2023-04-01T17:15:02;4.87;;;3.37;;
13568;SDS011;6856;51.460;7.158;2023-04-01T17:17:51;4.47;;;3.33;;
13568;SDS011;6856;51.460;7.158;2023-04-01T17:20:35;3.80;;;3.17;;
13568;SDS011;6856;51.460;7.158;2023-04-01T17:23:20;6.20;;;3.43;;
13568;SDS011;6856;51.460;7.158;2023-04-01T17:26:13;4.00;;;3.20;;
13568;SDS011;6856;51.460;7.158;2023-04-01T17:29:05;8.63;;;6.10;;
13568;SDS011;6856;51.460;7.158;2023-04-01T17:31:52;6.13;;;4.40;;
13568;SDS011;6856;51.460;7.158;2023-04-01T17:34:43;7.47;;;5.80;;
13568;SDS011;6856;51.460;7.158;2023-04-01T17:37:38;5.27;;;4.67;;
13568;SDS011;6856;51.460;7.158;2023-04-01T17:40:31;4.27;;;3.57;;
13568;SDS011;6856;51.460;7.158;2023-04-01T17:43:21;4.67;;;4.00;;
13568;SDS011;6856;51.460;7.158;2023-04-01T17:46:05;4.93;;;4.10;;
13568;SDS011;6856;51.460;7.158;2023-04-01T17:49:11;4.97;;;3.93;;
13568;SDS011;6856;51.460;7.158;2023-04-01T17:52:03;5.87;;;4.23;;
13568;SDS011;6856;51.460;7.158;2023-04-01T17:54:52;7.13;;;4.63;;
13568;SDS011;6856;51.460;7.158;2023-04-01T17:57:39;7.37;;;6.67;;
13568;SDS011;6856;51.460;7.158;2023-04-01T18:00:26;7.70;;;6.93;;
13568;SDS011;6856;51.460;7.158;2023-04-01T18:03:27;7.57;;;6.87;;
13568;SDS011;6856;51.460;7.158;2023-04-01T18:06:41;9.27;;;8.47;;
13568;SDS011;6856;51.460;7.158;2023-04-01T18:09:49;6.20;;;5.67;;
13568;SDS011;6856;51.460;7.158;2023-04-01T18:12:44;5.57;;;4.93;;
13568;SDS011;6856;51.460;7.158;2023-04-01T18:15:55;4.67;;;4.17;;
13568;SDS011;6856;51.460;7.158;2023-04-01T18:18:48;6.47;;;5.60;;
13568;SDS011;6856;51.460;7.158;2023-04-01T18:21:35;5.70;;;4.73;;
13568;SDS011;6856;51.460;7.158;2023-04-01T18:24:21;4.87;;;4.37;;
13568;SDS011;6856;51.460;7.158;2023-04-01T18:27:02;10.03;;;8.43;;
13568;SDS011;6856;51.460;7.158;2023-04-01T18:29:46;7.63;;;6.50;;
13568;SDS011;6856;51.460;7.158;2023-04-01T18:32:30;6.97;;;6.00;;
13568;SDS011;6856;51.460;7.158;2023-04-01T18:35:17;6.83;;;6.07;;
13568;SDS011;6856;51.460;7.158;2023-04-01T19:07:26;6.00;;;5.13;;
13568;SDS011;6856;51.460;7.158;2023-04-01T19:10:19;6.00;;;4.90;;
13568;SDS011;6856;51.460;7.158;2023-04-01T19:13:07;4.97;;;4.47;;
13568;SDS011;6856;51.460;7.158;2023-04-01T19:15:55;6.63;;;5.20;;
13568;SDS011;6856;51.460;7.158;2023-04-01T19:21:40;3.83;;;3.37;;
13568;SDS011;6856;51.460;7.158;2023-04-01T19:24:34;4.07;;;3.07;;
13568;SDS011;6856;51.460;7.158;2023-04-01T19:27:45;3.77;;;2.77;;
13568;SDS011;6856;51.460;7.158;2023-04-01T19:30:29;3.70;;;2.80;;
13568;SDS011;6856;51.460;7.158;2023-04-01T19:33:20;3.73;;;2.30;;
13568;SDS011;6856;51.460;7.158;2023-04-01T19:36:13;3.03;;;2.10;;